Time;durP1;ratioP1;P1;durP2;ratioP2;P2;SDS_P1;SDS_P2;PMS_P1;PMS_P2;Temp;Humidity;BMP_temperature;BMP_pressure;BME280_temperature;BME280_humidity;BME280_pressure;Samples;Min_cycle;Max_cycle;Signal;HPM_P1;HPM_P2
2022/11/01 00:01:05;;;;;;;29.87;16.02;;;;;;;7.12;71.61;97501.48;1706825;83;25840;-74
2022/11/01 00:03:33;;;;;;;28.98;15.00;;;;;;;7.07;71.41;97496.34;1728806;82;28423;-73
2022/11/01 00:06:00;;;;;;;27.95;14.80;;;;;;;7.02;71.55;97499.58;1728949;82;25750;-75
2022/11/01 00:08:26;;;;;;;26.07;14.53;;;;;;;7.03;71.65;97500.41;1729019;82;25758;-77
2022/11/01 00:11:02;;;;;;;28.32;14.03;;;;;;;7.04;71.69;97498.05;1728985;83;26670;-75
2022/11/01 00:13:29;;;;;;;29.57;14.28;;;;;;;7.06;71.77;97490.65;1714168;83;25872;-73
2022/11/01 00:15:56;;;;;;;29.10;14.53;;;;;;;7.07;71.82;97490.97;1694799;84;27532;-72
2022/11/01 00:18:22;;;;;;;25.08;13.85;;;;;;;7.08;71.83;97488.11;1694820;84;25842;-73
2022/11/01 00:20:49;;;;;;;30.77;14.25;;;;;;;7.10;71.90;97488.76;1694773;84;25784;-73
2022/11/01 00:23:16;;;;;;;21.42;13.15;;;;;;;7.11;71.92;97482.88;1694850;84;25743;-75
2022/11/01 00:25:43;;;;;;;24.60;13.53;;;;;;;7.12;72.03;97488.06;1695063;84;25701;-72
2022/11/01 00:28:09;;;;;;;25.85;13.53;;;;;;;7.12;72.12;97478.67;1694883;83;28284;-74
2022/11/01 00:30:37;;;;;;;22.82;13.20;;;;;;;7.06;72.15;97478.56;1694651;84;25739;-72
2022/11/01 00:33:05;;;;;;;29.50;13.93;;;;;;;7.05;72.22;97478.24;1694777;84;25759;-75
2022/11/01 00:35:32;;;;;;;29.98;14.68;;;;;;;7.06;72.19;97474.55;1694500;84;25767;-73
2022/11/01 00:37:59;;;;;;;26.80;14.00;;;;;;;7.05;72.20;97479.08;1694791;84;26266;-74
2022/11/01 00:40:27;;;;;;;32.95;14.15;;;;;;;7.05;72.26;97472.37;1694683;84;27383;-76
2022/11/01 00:42:54;;;;;;;31.68;14.63;;;;;;;7.06;72.47;97471.35;1694651;84;25801;-75
2022/11/01 00:45:20;;;;;;;32.78;14.83;;;;;;;7.06;72.57;97469.17;1694716;84;25906;-76
2022/11/01 00:47:47;;;;;;;27.93;13.60;;;;;;;7.08;72.67;97468.48;1694956;84;25730;-73
2022/11/01 00:50:14;;;;;;;31.93;13.30;;;;;;;7.10;72.71;97471.31;1694787;84;25803;-74
2022/11/01 00:52:41;;;;;;;26.20;13.60;;;;;;;7.07;72.78;97466.31;1694768;84;27451;-76
2022/11/01 00:55:09;;;;;;;22.48;11.90;;;;;;;7.03;72.75;97462.33;1694717;84;25810;-75
2022/11/01 00:57:35;;;;;;;24.90;11.60;;;;;;;7.02;72.71;97470.56;1687069;84;25753;-76
2022/11/01 01:00:04;;;;;;;28.27;12.47;;;;;;;7.00;72.72;97463.23;1765293;81;26348;-73
2022/11/01 01:02:30;;;;;;;20.37;10.43;;;;;;;7.01;72.62;97463.52;1684825;85;25778;-73
2022/11/01 01:04:57;;;;;;;20.08;11.55;;;;;;;6.98;72.57;97461.23;1765191;81;27536;-73
2022/11/01 01:07:23;;;;;;;22.67;11.60;;;;;;;6.93;72.51;97460.45;1684837;85;25675;-73
2022/11/01 01:09:50;;;;;;;21.23;11.97;;;;;;;6.92;72.56;97457.95;1772963;80;25779;-74
2022/11/01 01:12:17;;;;;;;24.00;11.28;;;;;;;6.91;72.63;97457.63;1781286;80;25643;-73
2022/11/01 01:14:43;;;;;;;19.62;11.10;;;;;;;6.90;72.65;97458.13;1781282;80;25858;-73
2022/11/01 01:17:10;;;;;;;26.80;11.15;;;;;;;6.88;72.66;97454.28;1781333;80;27341;-74
2022/11/01 01:19:36;;;;;;;25.23;11.97;;;;;;;6.89;72.78;97456.46;1781402;80;25673;-73
2022/11/01 01:22:03;;;;;;;24.52;11.80;;;;;;;6.88;72.84;97450.27;1781276;80;25798;-73
2022/11/01 01:24:31;;;;;;;18.67;10.58;;;;;;;6.83;73.02;97451.86;1781350;80;25780;-73
2022/11/01 01:26:58;;;;;;;29.57;11.65;;;;;;;6.78;73.20;97441.67;1781160;80;25649;-76
2022/11/01 01:29:25;;;;;;;24.02;12.33;;;;;;;6.79;73.50;97442.00;1781282;80;27448;-73
2022/11/01 01:31:51;;;;;;;31.62;11.97;;;;;;;6.78;73.56;97434.97;1781196;80;25746;-74
2022/11/01 01:34:18;;;;;;;24.27;11.80;;;;;;;6.78;73.86;97432.79;1781168;80;25651;-76
2022/11/01 01:36:46;;;;;;;23.40;12.07;;;;;;;6.75;74.00;97434.02;1780910;80;25728;-73
2022/11/01 01:39:13;;;;;;;25.05;12.03;;;;;;;6.69;74.15;97426.70;1781097;80;25751;-73
2022/11/01 01:41:55;;;;;;;22.07;11.55;;;;;;;6.66;74.35;97419.02;1781213;80;28164;-75
2022/11/01 01:44:50;;;;;;;23.00;11.63;;;;;;;6.64;74.62;97418.37;1781378;80;25667;-73
2022/11/01 01:47:36;;;;;;;23.65;11.20;;;;;;;6.64;74.70;97415.69;1781011;80;25683;-73
2022/11/01 01:50:14;;;;;;;22.10;10.90;;;;;;;6.69;74.69;97409.78;1781255;80;25725;-74
2022/11/01 01:52:55;;;;;;;24.32;11.95;;;;;;;6.74;74.77;97408.21;1767639;81;25788;-73
2022/11/01 01:55:27;;;;;;;22.45;11.73;;;;;;;6.77;74.79;97405.12;1683980;85;27445;-76
2022/11/01 01:57:56;;;;;;;22.27;10.93;;;;;;;6.80;74.90;97402.59;1763850;81;25796;-73
2022/11/01 02:00:24;;;;;;;23.22;11.10;;;;;;;6.81;74.91;97396.20;1687133;85;26479;-73
2022/11/01 02:02:51;;;;;;;18.52;10.20;;;;;;;6.83;74.89;97395.00;1687529;85;25761;-75
2022/11/01 02:05:28;;;;;;;23.32;10.43;;;;;;;6.87;74.91;97392.78;1686064;85;25317;-74
2022/11/01 02:07:56;;;;;;;22.95;9.23;;;;;;;6.90;75.00;97396.92;1687681;85;27926;-76
2022/11/01 02:10:23;;;;;;;26.20;10.88;;;;;;;6.90;75.01;97389.70;1687510;85;26045;-75
2022/11/01 02:12:49;;;;;;;24.27;9.73;;;;;;;6.95;75.04;97394.52;1687641;85;25815;-73
2022/11/01 02:15:19;;;;;;;28.52;10.10;;;;;;;6.95;75.07;97390.48;1716599;83;26334;-73
2022/11/01 02:18:08;;;;;;;25.17;10.85;;;;;;;6.94;75.16;97390.17;1687738;85;25581;-76
2022/11/01 02:21:10;;;;;;;29.40;11.55;;;;;;;6.92;75.10;97388.17;1686375;85;27414;-75
2022/11/01 02:24:01;;;;;;;24.45;11.12;;;;;;;6.92;75.08;97390.86;1682767;85;25806;-73
2022/11/01 02:26:56;;;;;;;26.95;10.63;;;;;;;6.93;75.19;97392.52;1605952;89;25769;-73
2022/11/01 02:29:40;;;;;;;18.80;10.10;;;;;;;6.92;75.12;97394.37;1605285;89;25767;-75
2022/11/01 02:32:30;;;;;;;22.02;9.78;;;;;;;6.90;75.20;97399.60;1603056;89;25814;-76
2022/11/01 02:35:21;;;;;;;17.10;9.73;;;;;;;6.92;75.23;97389.52;1602867;89;28145;-73
2022/11/01 02:37:59;;;;;;;18.48;9.60;;;;;;;6.93;75.19;97387.16;1553780;92;25934;-76
2022/11/01 02:40:49;;;;;;;21.02;9.83;;;;;;;6.92;75.29;97386.33;1576662;90;25837;-73
2022/11/01 02:43:21;;;;;;;17.40;9.55;;;;;;;6.95;75.34;97387.81;1557708;92;25853;-73
2022/11/01 02:45:49;;;;;;;19.62;7.70;;;;;;;6.94;75.43;97388.31;1491682;96;25928;-75
2022/11/01 02:48:20;;;;;;;20.50;9.13;;;;;;;6.94;75.47;97392.34;1491433;96;27430;-73
2022/11/01 02:50:52;;;;;;;19.07;7.62;;;;;;;6.98;75.54;97385.59;1491507;96;25894;-73
2022/11/01 02:53:18;;;;;;;18.40;8.18;;;;;;;7.01;75.62;97381.16;1490290;96;25855;-73
2022/11/01 02:55:45;;;;;;;23.35;8.20;;;;;;;7.03;75.71;97372.41;1491343;96;25766;-75
2022/11/01 02:58:25;;;;;;;18.37;7.97;;;;;;;7.04;75.74;97373.25;1487501;95;25839;-74
2022/11/01 03:00:52;;;;;;;20.60;8.60;;;;;;;7.05;75.81;97373.06;1498504;95;28296;-72
2022/11/01 03:03:31;;;;;;;18.98;8.58;;;;;;;7.08;75.94;97371.86;1492652;92;25808;-75
2022/11/01 03:06:07;;;;;;;19.35;8.48;;;;;;;7.10;75.99;97369.81;1563407;91;25785;-74
2022/11/01 03:08:48;;;;;;;19.20;8.23;;;;;;;7.12;76.10;97373.14;1563237;91;25859;-73
2022/11/01 03:11:22;;;;;;;15.65;7.87;;;;;;;7.14;76.12;97377.79;1563355;91;25852;-72
2022/11/01 03:14:08;;;;;;;20.82;8.58;;;;;;;7.14;76.28;97377.28;1563965;91;27399;-73
2022/11/01 03:16:39;;;;;;;21.55;8.35;;;;;;;7.15;76.18;97375.42;1592568;90;25856;-73
2022/11/01 03:19:30;;;;;;;23.97;8.53;;;;;;;7.17;76.31;97376.07;1591361;89;25777;-73
2022/11/01 03:22:05;;;;;;;16.45;7.75;;;;;;;7.16;76.24;97373.90;1645114;87;25916;-72
2022/11/01 03:24:46;;;;;;;18.25;7.33;;;;;;;7.16;76.32;97371.72;1641425;87;25780;-75
2022/11/01 03:27:26;;;;;;;14.43;8.30;;;;;;;7.15;76.63;97362.00;1634271;87;28250;-72
2022/11/01 03:30:06;;;;;;;22.48;7.35;;;;;;;7.17;76.66;97372.05;1631926;87;25775;-73
2022/11/01 03:32:46;;;;;;;21.60;9.18;;;;;;;7.20;76.69;97369.82;1612711;88;25795;-74
2022/11/01 03:35:23;;;;;;;25.90;8.83;;;;;;;7.23;76.55;97371.30;1581968;90;25692;-75
2022/11/01 03:37:58;;;;;;;20.23;8.05;;;;;;;7.26;76.46;97371.41;1582142;90;25811;-74
2022/11/01 03:40:27;;;;;;;20.62;8.83;;;;;;;7.28;76.39;97369.36;1582124;90;27388;-72
2022/11/01 03:43:04;;;;;;;21.07;9.53;;;;;;;7.26;76.33;97368.20;1586359;90;25751;-73
2022/11/01 03:45:35;;;;;;;19.55;9.00;;;;;;;7.26;76.39;97368.20;1586300;90;25854;-73
2022/11/01 03:48:04;;;;;;;19.20;8.83;;;;;;;7.26;76.50;97366.86;1563361;91;25972;-74
2022/11/01 03:50:31;;;;;;;18.50;8.80;;;;;;;7.24;76.49;97362.22;1563389;91;25635;-77
2022/11/01 03:52:58;;;;;;;20.45;8.43;;;;;;;7.22;76.43;97358.89;1563360;91;27376;-75
2022/11/01 03:55:25;;;;;;;15.18;7.17;;;;;;;7.19;76.50;97355.24;1563444;91;25772;-72
2022/11/01 03:57:56;;;;;;;17.75;8.45;;;;;;;7.19;76.58;97359.27;1569411;90;25761;-73
2022/11/01 04:00:29;;;;;;;17.98;7.65;;;;;;;7.20;76.65;97360.94;1580767;90;25844;-72
2022/11/01 04:02:57;;;;;;;18.30;7.72;;;;;;;7.23;76.65;97360.56;1581033;90;25873;-73
2022/11/01 04:05:26;;;;;;;21.45;8.55;;;;;;;7.27;76.72;97368.53;1560220;90;27397;-73
2022/11/01 04:07:53;;;;;;;20.48;8.93;;;;;;;7.27;76.55;97362.33;1575726;91;25352;-73
2022/11/01 04:10:21;;;;;;;18.70;7.78;;;;;;;7.18;76.37;97358.95;1587794;89;25879;-74
2022/11/01 04:12:49;;;;;;;19.98;9.18;;;;;;;7.12;76.43;97361.06;1604956;89;25858;-74
2022/11/01 04:21:09;;;;;;;24.25;9.45;;;;;;;7.11;76.68;97336.59;1616895;88;25832;-74
2022/11/01 04:23:37;;;;;;;18.73;8.67;;;;;;;7.12;76.86;97331.55;1620703;85;25841;-73
2022/11/01 04:26:05;;;;;;;22.35;9.43;;;;;;;7.12;76.89;97339.08;1675210;85;25827;-74
2022/11/01 04:28:31;;;;;;;22.05;9.80;;;;;;;7.14;76.90;97330.81;1682577;83;25840;-72
2022/11/01 04:30:58;;;;;;;18.17;9.33;;;;;;;7.15;76.81;97337.84;1727419;83;27359;-73
2022/11/01 04:33:24;;;;;;;17.35;9.15;;;;;;;7.16;76.66;97339.51;1716165;83;25922;-73
2022/11/01 04:35:51;;;;;;;15.93;8.75;;;;;;;7.13;76.53;97331.83;1739169;82;25751;-73
2022/11/01 04:38:18;;;;;;;20.72;8.88;;;;;;;7.03;76.40;97331.32;1715121;83;25667;-73
2022/11/01 04:40:44;;;;;;;18.92;9.28;;;;;;;6.97;76.41;97327.56;1727219;83;25703;-76
2022/11/01 04:43:12;;;;;;;21.25;9.93;;;;;;;6.98;76.50;97325.71;1714871;83;28066;-74
2022/11/01 04:45:39;;;;;;;17.92;9.15;;;;;;;6.95;76.42;97318.87;1727334;82;25274;-74
2022/11/01 04:48:15;;;;;;;16.20;9.38;;;;;;;6.93;76.38;97316.88;1714608;83;37265;-73
2022/11/01 04:50:44;;;;;;;18.05;9.73;;;;;;;6.90;76.41;97319.11;1739184;82;25768;-73
2022/11/01 04:53:10;;;;;;;14.63;8.78;;;;;;;6.91;76.51;97321.60;1714742;83;25720;-74
2022/11/01 04:55:37;;;;;;;14.68;8.23;;;;;;;6.92;76.38;97321.92;1739800;82;27405;-73
2022/11/01 04:58:05;;;;;;;19.65;10.20;;;;;;;6.89;76.32;97326.32;1745262;82;25379;-73
2022/11/01 05:00:33;;;;;;;22.22;9.40;;;;;;;6.86;76.29;97316.83;1744491;82;25429;-73
2022/11/01 05:03:03;;;;;;;21.10;8.78;;;;;;;6.81;76.32;97312.52;1744500;82;25747;-73
2022/11/01 05:05:30;;;;;;;20.92;9.35;;;;;;;6.78;76.46;97315.58;1711403;83;25715;-74
2022/11/01 05:08:09;;;;;;;19.35;10.10;;;;;;;6.73;76.60;97308.63;1711487;83;27552;-74
2022/11/01 05:10:41;;;;;;;21.50;8.98;;;;;;;6.74;76.57;97312.98;1768552;81;25881;-72
2022/11/01 05:13:09;;;;;;;16.20;8.70;;;;;;;6.71;76.52;97312.52;1698163;84;26279;-74
2022/11/01 05:15:36;;;;;;;16.62;9.03;;;;;;;6.66;76.41;97303.68;1697628;84;25862;-74
2022/11/01 05:18:03;;;;;;;16.05;9.25;;;;;;;6.62;76.30;97307.78;1697825;83;25597;-75
2022/11/01 05:20:30;;;;;;;22.95;9.43;;;;;;;6.61;76.34;97303.44;1697743;84;27449;-74
2022/11/01 05:23:04;;;;;;;17.02;8.40;;;;;;;6.58;76.21;97299.78;1697633;84;25280;-73
2022/11/01 05:25:33;;;;;;;16.02;9.00;;;;;;;6.56;76.19;97299.64;1697746;84;25780;-75
2022/11/01 05:28:06;;;;;;;17.00;8.93;;;;;;;6.49;76.19;97295.55;1697950;84;25853;-76
2022/11/01 05:30:35;;;;;;;23.60;9.33;;;;;;;6.48;76.43;97297.41;1688552;84;25807;-73
2022/11/01 05:33:04;;;;;;;17.50;8.50;;;;;;;6.51;76.63;97294.86;1705698;84;27304;-74
2022/11/01 05:35:33;;;;;;;18.90;8.18;;;;;;;6.50;76.57;97297.22;1705461;84;25847;-75
2022/11/01 05:38:01;;;;;;;17.87;8.18;;;;;;;6.48;76.49;97291.21;1705244;84;26038;-73
2022/11/01 05:40:28;;;;;;;20.25;9.18;;;;;;;6.47;76.47;97288.20;1705732;84;25739;-75
2022/11/01 05:42:55;;;;;;;17.95;8.30;;;;;;;6.48;76.48;97296.06;1705587;84;25802;-74
2022/11/01 05:45:22;;;;;;;25.48;8.98;;;;;;;6.49;76.55;97296.90;1705774;84;27563;-75
2022/11/01 05:47:49;;;;;;;16.70;8.45;;;;;;;6.44;76.48;97299.30;1705499;84;25816;-74
2022/11/01 05:50:16;;;;;;;17.07;8.40;;;;;;;6.44;76.55;97291.25;1705674;84;25795;-74
2022/11/01 05:52:43;;;;;;;15.10;8.10;;;;;;;6.44;76.64;97300.64;1705455;84;26505;-76
2022/11/01 05:55:10;;;;;;;15.13;7.83;;;;;;;6.44;76.60;97292.59;1705784;84;25794;-75
2022/11/01 05:57:36;;;;;;;15.93;8.33;;;;;;;6.43;76.66;97294.95;1705552;84;28167;-73
2022/11/01 06:00:06;;;;;;;27.80;11.30;;;;;;;6.39;76.88;97292.34;1705796;84;25886;-72
2022/11/01 06:02:33;;;;;;;25.55;10.75;;;;;;;6.42;77.15;97283.39;1724287;82;26901;-74
2022/11/01 06:04:59;;;;;;;21.02;11.15;;;;;;;6.48;77.33;97295.23;1736681;82;26487;-75
2022/11/01 06:07:27;;;;;;;24.82;10.90;;;;;;;6.54;77.42;97294.47;1736982;82;25864;-73
2022/11/01 06:09:53;;;;;;;26.23;12.35;;;;;;;6.57;77.40;97299.45;1740473;82;27377;-76
2022/11/01 06:12:23;;;;;;;22.87;12.37;;;;;;;6.58;77.43;97298.44;1743967;82;25624;-73
2022/11/01 06:14:50;;;;;;;36.05;14.80;;;;;;;6.63;77.47;97289.33;1744104;82;25909;-73
2022/11/01 06:17:18;;;;;;;24.98;12.93;;;;;;;6.67;77.40;97297.30;1743675;82;26602;-75
2022/11/01 06:19:44;;;;;;;32.55;14.95;;;;;;;6.70;77.38;97291.56;1743613;82;25804;-75
2022/11/01 06:22:11;;;;;;;39.18;14.35;;;;;;;6.71;77.49;97287.86;1743929;82;27361;-74
2022/11/01 06:24:37;;;;;;;36.40;15.68;;;;;;;6.74;77.54;97291.52;1743867;82;25917;-75
2022/11/01 06:27:04;;;;;;;35.55;17.05;;;;;;;6.77;77.71;97289.77;1748372;81;25771;-76
2022/11/01 06:29:31;;;;;;;35.33;15.18;;;;;;;6.80;77.77;97289.39;1756603;81;26407;-74
2022/11/01 06:31:57;;;;;;;28.17;14.23;;;;;;;6.85;77.94;97291.02;1756637;81;25701;-74
2022/11/01 06:34:24;;;;;;;27.62;14.80;;;;;;;6.94;78.05;97278.80;1756692;81;27362;-74
2022/11/01 06:36:50;;;;;;;26.23;14.05;;;;;;;6.98;78.15;97281.44;1773443;80;25666;-75
2022/11/01 06:39:17;;;;;;;27.35;14.33;;;;;;;7.05;78.17;97290.36;1780108;80;25772;-73
2022/11/01 06:41:45;;;;;;;25.88;13.60;;;;;;;7.14;78.23;97297.26;1780124;80;26506;-73
2022/11/01 06:44:11;;;;;;;28.62;13.15;;;;;;;7.20;78.24;97297.34;1780480;80;25670;-75
2022/11/01 06:46:38;;;;;;;33.60;14.85;;;;;;;7.26;78.33;97289.00;1780472;80;27367;-74
2022/11/01 06:49:04;;;;;;;27.82;16.30;;;;;;;7.31;78.37;97281.72;1780369;80;25733;-73
2022/11/01 06:51:31;;;;;;;30.00;16.23;;;;;;;7.38;78.49;97280.74;1780403;80;25752;-75
2022/11/01 06:53:58;;;;;;;29.32;16.40;;;;;;;7.45;78.52;97286.19;1780224;80;26569;-73
2022/11/01 06:56:24;;;;;;;31.90;14.78;;;;;;;7.54;78.54;97280.98;1780386;80;25646;-75
2022/11/01 06:58:51;;;;;;;28.42;14.20;;;;;;;7.62;78.67;97286.20;1785215;79;28022;-73
2022/11/01 07:01:20;;;;;;;27.98;14.33;;;;;;;7.73;78.73;97288.88;1749888;81;25705;-73
2022/11/01 07:03:51;;;;;;;28.75;13.35;;;;;;;7.80;78.87;97283.03;1733090;82;25715;-73
2022/11/01 07:06:19;;;;;;;27.13;13.22;;;;;;;7.89;78.95;97288.55;1718252;83;25785;-74
2022/11/01 07:08:45;;;;;;;25.62;12.65;;;;;;;7.97;79.04;97284.36;1725742;83;25474;-73
2022/11/01 07:11:12;;;;;;;23.42;12.58;;;;;;;8.05;78.97;97284.22;1725673;83;28256;-73
2022/11/01 07:13:39;;;;;;;26.27;12.73;;;;;;;8.14;78.96;97292.42;1725767;83;25695;-73
2022/11/01 07:16:06;;;;;;;32.83;13.08;;;;;;;8.24;79.07;97286.17;1725792;83;26223;-76
2022/11/01 07:18:33;;;;;;;24.27;13.68;;;;;;;8.33;79.11;97281.50;1725570;83;25782;-74
2022/11/01 07:21:03;;;;;;;28.17;14.80;;;;;;;8.45;79.09;97281.76;1727446;82;25818;-73
2022/11/01 07:23:30;;;;;;;27.10;12.82;;;;;;;8.57;79.04;97276.12;1750112;81;27557;-74
2022/11/01 07:25:57;;;;;;;23.45;12.05;;;;;;;8.71;79.01;97280.48;1749637;81;25425;-76
2022/11/01 07:28:24;;;;;;;25.00;14.80;;;;;;;8.85;79.02;97274.11;1748573;81;25732;-74
2022/11/01 07:30:53;;;;;;;31.25;16.02;;;;;;;9.00;78.98;97272.59;1731431;82;25738;-74
2022/11/01 07:33:20;;;;;;;28.45;16.42;;;;;;;9.16;78.93;97264.64;1718506;83;25730;-75
2022/11/01 07:35:48;;;;;;;34.53;17.75;;;;;;;9.33;79.13;97253.24;1746796;82;28375;-73
2022/11/01 07:38:15;;;;;;;40.48;17.12;;;;;;;9.58;79.36;97253.45;1746944;81;25742;-74
2022/11/01 07:40:43;;;;;;;22.73;13.05;;;;;;;9.88;79.67;97254.34;1731399;82;25765;-74
2022/11/01 07:43:10;;;;;;;23.67;12.73;;;;;;;10.14;79.33;97260.20;1747228;82;25683;-73
2022/11/01 07:45:36;;;;;;;21.82;12.45;;;;;;;10.40;79.05;97249.33;1747138;82;25668;-75
2022/11/01 07:48:09;;;;;;;27.45;12.28;;;;;;;10.64;78.67;97249.94;1747218;82;27433;-74
2022/11/01 07:50:37;;;;;;;30.10;11.60;;;;;;;10.86;78.33;97247.77;1731935;82;25703;-74
2022/11/01 07:53:17;;;;;;;24.18;12.75;;;;;;;11.08;78.11;97246.38;1718441;83;25728;-73
2022/11/01 07:55:45;;;;;;;26.80;12.90;;;;;;;11.23;77.76;97238.48;1598426;88;25965;-74
2022/11/01 07:58:13;;;;;;;29.42;13.10;;;;;;;11.42;77.72;97233.44;1600376;89;25824;-73
2022/11/01 08:00:41;;;;;;;26.95;14.75;;;;;;;11.62;77.61;97245.41;1595458;89;27451;-74
2022/11/01 08:03:17;;;;;;;31.40;14.13;;;;;;;11.82;77.43;97241.53;1636824;87;25736;-76
2022/11/01 08:05:47;;;;;;;24.85;12.90;;;;;;;12.03;77.31;97236.20;1633930;87;25815;-74
2022/11/01 08:08:14;;;;;;;25.40;12.93;;;;;;;12.23;77.14;97239.52;1589402;88;26470;-75
2022/11/01 08:10:42;;;;;;;21.82;10.35;;;;;;;12.50;77.18;97235.14;1589524;90;25919;-73
2022/11/01 08:13:21;;;;;;;24.15;11.65;;;;;;;12.74;76.58;97236.08;1589291;90;28275;-75
2022/11/01 08:15:50;;;;;;;22.00;9.00;;;;;;;12.94;76.24;97233.91;1588466;89;25794;-73
2022/11/01 08:18:26;;;;;;;17.82;7.83;;;;;;;13.18;75.78;97231.59;1578459;90;25775;-73
2022/11/01 08:20:52;;;;;;;12.68;6.15;;;;;;;13.37;75.32;97225.58;1563401;91;26431;-74
2022/11/01 08:23:20;;;;;;;19.27;5.80;;;;;;;13.57;74.89;97226.59;1613513;88;25467;-74
2022/11/01 08:25:46;;;;;;;12.93;5.60;;;;;;;13.83;73.75;97225.31;1613420;88;27403;-74
2022/11/01 08:28:19;;;;;;;10.45;5.22;;;;;;;14.05;73.87;97227.19;1563627;91;25925;-74
2022/11/01 08:30:49;;;;;;;14.60;6.10;;;;;;;14.25;73.39;97235.50;1613549;88;25866;-75
2022/11/01 08:33:16;;;;;;;19.17;5.15;;;;;;;14.48;72.57;97231.94;1637850;86;26340;-75
2022/11/01 08:35:46;;;;;;;13.25;4.67;;;;;;;14.69;70.77;97230.75;1642818;87;25727;-76
2022/11/01 08:38:12;;;;;;;19.12;5.53;;;;;;;14.89;70.48;97234.37;1641237;87;25987;-76
2022/11/01 08:40:39;;;;;;;14.68;4.85;;;;;;;15.06;70.01;97237.16;1641240;87;25951;-77
2022/11/01 08:43:06;;;;;;;11.18;4.53;;;;;;;15.25;69.67;97244.02;1615397;88;26856;-73
2022/11/01 08:45:32;;;;;;;13.62;4.33;;;;;;;15.50;68.64;97226.78;1654716;86;25749;-74
2022/11/01 08:48:03;;;;;;;12.85;4.72;;;;;;;15.76;68.33;97223.96;1643143;85;25759;-75
2022/11/01 08:50:32;;;;;;;12.35;4.15;;;;;;;15.98;68.23;97224.55;1599553;89;27468;-73
2022/11/01 08:53:08;;;;;;;16.20;5.15;;;;;;;16.19;67.50;97213.69;1604586;88;25755;-76
2022/11/01 08:55:36;;;;;;;18.17;4.67;;;;;;;16.42;67.30;97214.55;1631597;87;25826;-76
2022/11/01 08:58:03;;;;;;;14.45;3.87;;;;;;;16.63;66.56;97219.20;1631426;87;26428;-76
2022/11/01 09:00:30;;;;;;;13.03;5.17;;;;;;;16.78;65.65;97224.84;1636491;86;25489;-74
2022/11/01 09:02:57;;;;;;;15.00;5.90;;;;;;;16.91;64.86;97214.05;1669452;85;27510;-77
2022/11/01 09:05:23;;;;;;;10.03;4.78;;;;;;;17.10;64.71;97213.17;1669476;85;26524;-74
2022/11/01 09:07:57;;;;;;;11.05;4.17;;;;;;;17.27;64.03;97211.97;1669774;85;25785;-74
2022/11/01 09:10:24;;;;;;;12.37;4.47;;;;;;;17.44;63.64;97211.86;1646836;87;26558;-76
2022/11/01 09:12:51;;;;;;;12.68;4.92;;;;;;;17.59;63.26;97210.63;1646866;87;25693;-74
2022/11/01 09:15:17;;;;;;;13.03;4.15;;;;;;;17.73;62.59;97211.05;1646721;87;27416;-73
2022/11/01 09:17:44;;;;;;;11.93;4.60;;;;;;;17.88;62.34;97205.67;1646774;87;25811;-74
2022/11/01 09:20:11;;;;;;;11.90;4.70;;;;;;;18.00;62.07;97202.74;1647109;87;25304;-74
2022/11/01 09:22:37;;;;;;;13.08;4.33;;;;;;;18.10;61.89;97200.64;1647057;87;26385;-74
2022/11/01 09:25:05;;;;;;;13.55;4.12;;;;;;;18.23;61.43;97205.64;1646872;87;25885;-73
2022/11/01 09:27:32;;;;;;;14.73;4.30;;;;;;;18.36;61.09;97203.23;1647122;87;27452;-74
2022/11/01 09:29:58;;;;;;;15.18;4.75;;;;;;;18.51;60.41;97209.86;1646809;87;25322;-74
2022/11/01 09:32:27;;;;;;;16.27;4.35;;;;;;;18.67;59.53;97202.04;1646987;87;25832;-74
2022/11/01 09:34:54;;;;;;;16.37;4.55;;;;;;;18.84;59.34;97193.05;1646706;87;25789;-75
2022/11/01 09:37:21;;;;;;;13.28;4.50;;;;;;;19.01;58.50;97195.57;1647037;87;25740;-77
2022/11/01 09:39:48;;;;;;;16.32;4.58;;;;;;;19.05;56.99;97188.48;1646694;87;27451;-73
2022/11/01 09:42:33;;;;;;;16.23;4.67;;;;;;;19.07;57.01;97189.03;1647088;87;25519;-73
2022/11/01 09:45:05;;;;;;;15.13;4.15;;;;;;;19.10;56.66;97194.48;1646901;87;25903;-74
2022/11/01 09:47:34;;;;;;;16.30;4.40;;;;;;;19.19;56.14;97188.78;1629234;87;25844;-75
2022/11/01 09:50:12;;;;;;;16.17;4.28;;;;;;;19.23;55.70;97188.49;1659866;86;25820;-74
2022/11/01 09:52:40;;;;;;;13.62;4.30;;;;;;;19.23;55.58;97187.95;1588508;90;27444;-77
2022/11/01 09:55:14;;;;;;;14.03;4.05;;;;;;;19.29;55.33;97180.03;1590510;90;25822;-74
2022/11/01 09:57:49;;;;;;;8.65;4.15;;;;;;;19.39;55.54;97173.73;1588217;90;25847;-77
2022/11/01 10:00:18;;;;;;;10.03;3.70;;;;;;;19.53;55.32;97175.42;1500209;95;26954;-74
2022/11/01 10:03:13;;;;;;;13.53;4.12;;;;;;;19.63;55.02;97180.89;1502658;95;25832;-77
2022/11/01 10:06:09;;;;;;;8.50;4.37;;;;;;;19.74;54.13;97179.23;1503625;95;27546;-75
2022/11/01 10:08:50;;;;;;;15.38;4.22;;;;;;;19.88;54.14;97171.83;1517275;94;25781;-73
2022/11/01 10:11:33;;;;;;;10.40;4.42;;;;;;;19.99;53.46;97171.53;1517139;94;25733;-74
2022/11/01 10:14:13;;;;;;;14.33;4.45;;;;;;;20.03;52.68;97165.78;1516553;94;25914;-73
2022/11/01 10:16:45;;;;;;;12.78;4.20;;;;;;;20.05;52.71;97173.70;1518163;94;26012;-74
2022/11/01 10:19:18;;;;;;;14.28;4.62;;;;;;;20.03;52.42;97174.55;1493648;95;28219;-75
2022/11/01 10:21:55;;;;;;;12.50;4.53;;;;;;;20.01;52.13;97169.89;1499776;95;25880;-75
2022/11/01 10:24:52;;;;;;;11.30;4.22;;;;;;;19.97;51.79;97161.94;1499714;95;25867;-75
2022/11/01 10:27:52;;;;;;;12.47;4.40;;;;;;;19.93;51.93;97158.92;1499906;95;25874;-78
2022/11/01 10:30:20;;;;;;;11.85;4.80;;;;;;;19.94;51.76;97164.68;1515072;93;25993;-77
2022/11/01 10:32:53;;;;;;;10.30;4.80;;;;;;;20.13;51.68;97163.56;1522646;94;27419;-75
2022/11/01 10:35:43;;;;;;;10.98;4.60;;;;;;;20.37;51.88;97168.72;1529164;93;25840;-76
2022/11/01 10:38:29;;;;;;;11.30;4.10;;;;;;;20.66;51.38;97160.63;1522421;94;25920;-75
2022/11/01 10:41:10;;;;;;;11.33;4.80;;;;;;;20.94;51.16;97161.86;1529440;93;25677;-75
2022/11/01 10:43:45;;;;;;;9.60;4.90;;;;;;;21.15;50.66;97157.87;1480262;93;25763;-76
2022/11/01 10:46:17;;;;;;;9.63;3.77;;;;;;;21.43;50.54;97154.14;1460960;98;27414;-74
2022/11/01 10:48:54;;;;;;;10.15;4.28;;;;;;;21.72;50.01;97161.88;1455485;98;25751;-75
2022/11/01 10:51:25;;;;;;;11.33;5.17;;;;;;;21.97;49.68;97164.11;1446491;99;25812;-75
2022/11/01 10:53:57;;;;;;;19.45;7.17;;;;;;;22.12;49.58;97142.80;1457776;96;26468;-76
2022/11/01 10:56:38;;;;;;;14.80;7.45;;;;;;;22.40;49.46;97173.28;1484843;92;25761;-75
2022/11/01 10:59:16;;;;;;;16.45;8.98;;;;;;;22.49;49.27;97164.64;1559839;91;27391;-77
2022/11/01 11:01:44;;;;;;;14.98;8.50;;;;;;;22.66;49.19;97162.80;1549292;92;25773;-74
2022/11/01 11:04:17;;;;;;;18.10;9.85;;;;;;;22.70;49.10;97169.36;1549833;92;25886;-77
2022/11/01 11:06:44;;;;;;;14.95;9.65;;;;;;;22.61;48.60;97171.92;1550005;92;26417;-75
2022/11/01 11:09:22;;;;;;;13.10;8.98;;;;;;;22.49;48.44;97172.34;1549849;92;26091;-75
2022/11/01 11:11:50;;;;;;;13.58;9.53;;;;;;;22.44;48.45;97174.34;1526621;92;27469;-78
2022/11/01 11:14:20;;;;;;;15.05;10.78;;;;;;;22.50;48.20;97171.23;1526332;93;25848;-76
2022/11/01 11:16:54;;;;;;;14.00;10.78;;;;;;;22.63;47.91;97171.90;1526176;94;25782;-77
2022/11/01 11:19:32;;;;;;;15.00;11.03;;;;;;;22.60;47.55;97163.41;1504995;94;25922;-75
2022/11/01 11:22:01;;;;;;;15.53;11.30;;;;;;;22.62;47.60;97171.63;1527840;93;25667;-78
2022/11/01 11:24:40;;;;;;;17.65;12.15;;;;;;;22.67;47.19;97164.44;1508696;95;28090;-75
2022/11/01 11:27:23;;;;;;;20.50;13.48;;;;;;;22.63;47.43;97162.27;1532959;93;25861;-75
2022/11/01 11:30:06;;;;;;;18.12;14.68;;;;;;;22.78;47.48;97171.48;1532842;93;25886;-75
2022/11/01 11:32:40;;;;;;;17.42;13.93;;;;;;;22.93;47.64;97169.91;1532614;93;26541;-75
2022/11/01 11:35:20;;;;;;;18.98;16.25;;;;;;;23.08;47.57;97174.35;1532950;93;25881;-75
2022/11/01 11:37:57;;;;;;;17.60;15.30;;;;;;;23.06;47.32;97177.98;1532983;93;27422;-76
2022/11/01 11:40:40;;;;;;;20.65;17.07;;;;;;;22.94;47.17;97174.30;1532690;93;25717;-76
2022/11/01 11:43:30;;;;;;;17.85;15.90;;;;;;;22.80;47.11;97178.33;1542923;92;25870;-79
2022/11/01 11:46:22;;;;;;;18.67;15.95;;;;;;;22.68;47.17;97175.70;1596766;88;26499;-77
2022/11/01 11:49:03;;;;;;;20.95;16.23;;;;;;;22.57;47.19;97175.02;1626500;86;25745;-76
2022/11/01 11:51:36;;;;;;;19.00;15.43;;;;;;;22.36;47.30;97174.42;1626247;88;27479;-75